< Cyclone 199603 1996 Season Cyclone 199605 >
Cyclone 199604 (GERTIE)
General InformationTrack Information on Google MapsDetailed Wind InformationList of All Images || ResourceGoogle EarthGE AnimationAtom FeedGeoJSON
Detalied Best Track (Time Zone = UTC)
Year Month Day Hour Lat. Long. Pressure (hPa) Wind (kt) Class Image Chart
1995 12 17 07 -13.1 125.5 1000 27 2 Image --
1995 12 17 10 -13.3 125.1 1000 27 2 Image --
1995 12 17 13 -13.5 124.7 1000 27 2 Image --
1995 12 17 16 -13.7 124.3 1000 27 2 Image --
1995 12 17 19 -14.0 123.9 998 29 2 Image --
1995 12 17 22 -14.3 123.3 998 29 2 Image --
1995 12 18 01 -14.6 122.8 998 29 2 Image --
1995 12 18 04 -14.9 122.4 995 35 3 Image --
1995 12 18 07 -15.2 122.1 990 41 3 Image --
1995 12 18 10 -15.4 121.8 985 47 3 Image --
1995 12 18 13 -15.6 121.6 985 47 3 Image --
1995 12 18 16 -15.9 121.4 980 54 4 Image --
1995 12 18 19 -16.2 121.2 980 54 4 Image --
1995 12 18 22 -16.7 120.9 975 60 4 Image --
1995 12 19 01 -17.3 120.7 975 60 4 Image --
1995 12 19 04 -17.8 120.3 970 66 5 Image --
1995 12 19 07 -18.1 119.8 970 66 5 Image --
1995 12 19 10 -18.1 119.9 965 70 5 Image --
1995 12 19 13 -18.3 120.0 965 70 5 Image --
1995 12 19 16 -18.6 120.0 965 70 5 Image --
1995 12 19 19 -19.0 120.4 965 70 5 Image --
1995 12 19 22 -19.3 120.6 965 70 5 Image --
1995 12 20 01 -19.7 120.9 965 70 5 Image --
1995 12 20 04 -20.0 121.2 970 66 5 Image --
1995 12 20 07 -20.4 121.4 970 66 5 Image --
1995 12 20 10 -20.8 121.9 975 60 4 Image --
1995 12 20 13 -21.2 122.4 980 54 4 Image --
1995 12 20 16 -21.7 122.9 985 47 3 Image --
1995 12 20 19 -22.1 123.5 990 41 3 Image --
1995 12 20 22 -22.5 124.4 990 41 3 Image --
1995 12 21 01 -23.0 125.2 990 41 3 Image --
1995 12 21 04 -23.4 126.3 990 41 3 Image --
1995 12 21 07 -23.8 127.3 990 41 3 Image --
1995 12 21 10 -24.3 128.2 990 41 3 Image --
1995 12 21 13 -24.6 129.2 990 41 3 Image --
1995 12 21 16 -25.1 130.2 990 41 3 Image --
1995 12 21 19 -25.7 131.8 992 39 3 Image --
1995 12 21 22 -26.2 133.4 992 39 3 Image --
1995 12 22 01 -26.5 134.8 994 35 3 Image --
1995 12 22 13 -26.9 141.0 996 33 2 Image --
1995 12 23 01 -24.9 149.0 996 33 2 Image --
1995 12 23 13 -25.9 154.0 994 35 3 Image --
1995 12 24 01 -23.9 157.0 990 41 3 Image --
1995 12 24 13 -22.9 163.0 990 41 3 Image --
< Cyclone 199603 1996 Season Cyclone 199605 >

Help